Time;durP1;ratioP1;P1;durP2;ratioP2;P2;SDS_P1;SDS_P2;PMS_P1;PMS_P2;Temp;Humidity;BMP_temperature;BMP_pressure;BME280_temperature;BME280_humidity;BME280_pressure;Samples;Min_cycle;Max_cycle;Signal;HPM_P1;HPM_P2
2021/08/11 00:01:47;;;;;;;5.55;4.20;;;;;;;;;;5017601;28;20396;-76
2021/08/11 00:04:13;;;;;;;7.55;4.35;;;;;;;;;;5034916;28;20099;-75
2021/08/11 00:06:39;;;;;;;5.05;4.38;;;;;;;;;;5035132;28;20045;-76
2021/08/11 00:09:05;;;;;;;5.25;4.40;;;;;;;;;;5035561;28;20041;-76
2021/08/11 00:11:32;;;;;;;5.80;4.45;;;;;;;;;;5035466;28;20033;-76
2021/08/11 00:13:59;;;;;;;4.93;4.50;;;;;;;;;;5035305;28;20044;-76
2021/08/11 00:16:25;;;;;;;7.78;4.25;;;;;;;;;;5035100;28;20044;-76
2021/08/11 00:18:51;;;;;;;6.75;4.40;;;;;;;;;;5034714;28;20362;-76
2021/08/11 00:21:17;;;;;;;8.05;4.75;;;;;;;;;;5034202;28;20547;-76
2021/08/11 00:23:43;;;;;;;8.05;4.25;;;;;;;;;;5034953;28;20049;-76
2021/08/11 00:26:09;;;;;;;9.15;4.30;;;;;;;;;;5034923;28;20496;-76
2021/08/11 00:28:35;;;;;;;6.15;4.63;;;;;;;;;;5035114;28;20037;-76
2021/08/11 00:31:02;;;;;;;4.88;4.40;;;;;;;;;;5035392;28;20129;-76
2021/08/11 00:33:28;;;;;;;5.50;4.57;;;;;;;;;;5034868;28;20041;-76
2021/08/11 00:35:54;;;;;;;5.28;4.78;;;;;;;;;;5034309;28;20069;-76
2021/08/11 00:38:22;;;;;;;7.70;4.60;;;;;;;;;;5034443;28;20116;-76
2021/08/11 00:40:48;;;;;;;6.43;4.45;;;;;;;;;;5034720;28;20037;-76
2021/08/11 00:43:14;;;;;;;5.20;4.47;;;;;;;;;;5034864;28;20077;-76
2021/08/11 00:45:41;;;;;;;5.93;4.93;;;;;;;;;;5034325;28;20052;-76
2021/08/11 00:48:09;;;;;;;7.05;4.50;;;;;;;;;;5034327;28;20034;-76
2021/08/11 00:50:35;;;;;;;5.47;4.47;;;;;;;;;;5034253;28;20077;-76
2021/08/11 00:53:03;;;;;;;5.78;4.63;;;;;;;;;;5034322;28;20067;-76
2021/08/11 00:55:29;;;;;;;6.97;4.63;;;;;;;;;;5034597;28;20038;-76
2021/08/11 00:57:56;;;;;;;6.43;4.32;;;;;;;;;;5034252;28;20034;-76
2021/08/11 01:00:23;;;;;;;5.20;4.65;;;;;;;;;;5034098;28;20104;-76
2021/08/11 01:02:50;;;;;;;5.35;4.70;;;;;;;;;;5034623;28;20045;-76
2021/08/11 01:05:18;;;;;;;8.27;4.50;;;;;;;;;;5033981;28;20049;-76
2021/08/11 01:07:45;;;;;;;5.57;5.07;;;;;;;;;;5034678;28;20033;-76
2021/08/11 01:10:12;;;;;;;5.32;4.57;;;;;;;;;;5034157;28;20057;-76
2021/08/11 01:12:38;;;;;;;5.85;5.10;;;;;;;;;;5034478;28;20041;-76
2021/08/11 01:15:05;;;;;;;6.03;5.15;;;;;;;;;;5034024;28;20091;-75
2021/08/11 01:17:31;;;;;;;6.55;4.32;;;;;;;;;;5034294;28;20033;-76
2021/08/11 01:19:59;;;;;;;5.22;4.43;;;;;;;;;;5034601;28;20080;-76
2021/08/11 01:22:30;;;;;;;4.88;4.47;;;;;;;;;;5034116;28;20041;-76
2021/08/11 01:24:56;;;;;;;5.78;4.30;;;;;;;;;;5034208;28;20107;-76
2021/08/11 01:27:41;;;;;;;5.40;4.22;;;;;;;;;;5034497;28;20046;-76
2021/08/11 01:30:20;;;;;;;5.70;4.72;;;;;;;;;;5034229;28;20057;-76
2021/08/11 01:32:49;;;;;;;5.22;4.70;;;;;;;;;;5034275;28;20045;-76
2021/08/11 01:35:18;;;;;;;6.53;5.00;;;;;;;;;;5033975;28;20037;-76
2021/08/11 01:37:45;;;;;;;7.22;4.85;;;;;;;;;;5034314;28;20064;-76
2021/08/11 01:40:17;;;;;;;5.80;5.10;;;;;;;;;;5016706;28;20395;-76
2021/08/11 01:42:44;;;;;;;5.32;4.82;;;;;;;;;;5034331;28;20072;-76
2021/08/11 01:45:12;;;;;;;6.25;4.72;;;;;;;;;;5034042;28;20049;-75
2021/08/11 01:47:41;;;;;;;6.18;4.85;;;;;;;;;;5034091;28;20041;-76
2021/08/11 01:50:08;;;;;;;9.93;5.40;;;;;;;;;;5016231;28;20037;-75
2021/08/11 01:52:40;;;;;;;5.10;4.60;;;;;;;;;;5034173;28;20048;-75
2021/08/11 01:55:07;;;;;;;6.00;4.97;;;;;;;;;;5034403;28;20531;-75
2021/08/11 01:57:33;;;;;;;5.47;4.57;;;;;;;;;;5033931;28;20073;-75
2021/08/11 02:00:00;;;;;;;7.97;4.95;;;;;;;;;;5034041;28;20041;-75
2021/08/11 02:02:26;;;;;;;5.75;5.15;;;;;;;;;;5034760;28;20041;-75
2021/08/11 02:04:52;;;;;;;8.93;4.25;;;;;;;;;;5033856;28;20041;-75
2021/08/11 02:07:18;;;;;;;7.90;5.05;;;;;;;;;;5037188;28;20080;-75
2021/08/11 02:09:45;;;;;;;5.50;5.00;;;;;;;;;;5038616;28;20045;-75
2021/08/11 02:12:11;;;;;;;6.43;4.95;;;;;;;;;;5037994;28;20041;-75
2021/08/11 02:14:40;;;;;;;5.65;4.72;;;;;;;;;;5037472;28;20048;-75
2021/08/11 02:17:06;;;;;;;12.07;6.03;;;;;;;;;;5037516;28;20044;-75
2021/08/11 02:19:33;;;;;;;5.40;4.88;;;;;;;;;;5037685;28;20499;-75
2021/08/11 02:21:59;;;;;;;5.88;4.90;;;;;;;;;;5037420;28;20052;-76
2021/08/11 02:24:25;;;;;;;6.03;5.40;;;;;;;;;;5037419;28;20072;-75
2021/08/11 02:26:51;;;;;;;5.97;5.30;;;;;;;;;;5036898;28;20056;-76
2021/08/11 02:29:26;;;;;;;8.15;5.32;;;;;;;;;;5037131;28;20128;-76
2021/08/11 02:31:58;;;;;;;5.97;4.70;;;;;;;;;;5037308;28;20045;-75
2021/08/11 02:34:27;;;;;;;6.10;4.50;;;;;;;;;;5036759;28;20045;-76
2021/08/11 02:36:57;;;;;;;7.82;5.20;;;;;;;;;;5019225;28;20033;-76
2021/08/11 02:39:32;;;;;;;5.85;5.28;;;;;;;;;;5036988;28;20048;-76
2021/08/11 02:42:01;;;;;;;6.30;5.00;;;;;;;;;;5037429;28;20038;-76
2021/08/11 02:44:31;;;;;;;5.57;4.70;;;;;;;;;;5036482;28;20497;-75
2021/08/11 02:46:58;;;;;;;6.15;5.22;;;;;;;;;;5036686;28;20047;-76
2021/08/11 02:49:29;;;;;;;5.90;5.10;;;;;;;;;;5036723;28;20510;-76
2021/08/11 02:51:56;;;;;;;6.63;4.70;;;;;;;;;;5036250;28;20045;-76
2021/08/11 02:54:23;;;;;;;8.20;5.50;;;;;;;;;;5036569;28;20033;-76
2021/08/11 02:56:50;;;;;;;5.90;5.25;;;;;;;;;;5036357;28;20049;-75
2021/08/11 02:59:16;;;;;;;5.88;5.30;;;;;;;;;;5018772;28;20079;-75
2021/08/11 03:01:43;;;;;;;6.68;5.47;;;;;;;;;;5036890;28;20076;-75
2021/08/11 03:04:09;;;;;;;7.82;4.93;;;;;;;;;;5036365;28;20073;-75
2021/08/11 03:06:36;;;;;;;6.13;5.53;;;;;;;;;;5036869;28;20049;-75
2021/08/11 03:09:03;;;;;;;5.60;5.07;;;;;;;;;;5035890;28;20041;-75
2021/08/11 03:11:29;;;;;;;8.45;5.40;;;;;;;;;;5036990;28;20049;-75
2021/08/11 03:13:56;;;;;;;6.40;5.50;;;;;;;;;;5036290;28;20076;-75
2021/08/11 03:16:22;;;;;;;6.18;5.38;;;;;;;;;;5035503;28;20076;-75
2021/08/11 03:18:52;;;;;;;5.65;5.15;;;;;;;;;;5035209;28;20049;-75
2021/08/11 03:21:19;;;;;;;6.55;5.65;;;;;;;;;;5036342;28;20052;-75
2021/08/11 03:23:45;;;;;;;7.18;5.40;;;;;;;;;;5036671;28;20472;-75
2021/08/11 03:26:11;;;;;;;6.30;4.65;;;;;;;;;;5036660;28;20056;-76
2021/08/11 03:28:37;;;;;;;7.97;5.25;;;;;;;;;;5036111;28;20041;-75
2021/08/11 03:31:03;;;;;;;7.60;5.50;;;;;;;;;;5036157;28;20526;-75
2021/08/11 03:33:29;;;;;;;10.75;6.00;;;;;;;;;;5036018;28;20045;-75
2021/08/11 03:35:55;;;;;;;5.75;5.15;;;;;;;;;;5036362;28;20041;-75
2021/08/11 03:38:22;;;;;;;6.05;4.82;;;;;;;;;;5035811;28;20067;-75
2021/08/11 03:40:48;;;;;;;5.90;5.40;;;;;;;;;;5036016;28;20050;-75
2021/08/11 03:43:14;;;;;;;5.32;4.82;;;;;;;;;;5035695;28;20049;-75
2021/08/11 03:45:42;;;;;;;5.88;5.28;;;;;;;;;;5036193;28;20045;-75
2021/08/11 03:48:08;;;;;;;6.75;4.72;;;;;;;;;;5035576;28;20116;-75
2021/08/11 03:50:34;;;;;;;5.80;5.30;;;;;;;;;;5018092;28;20395;-75
2021/08/11 03:53:00;;;;;;;7.25;5.50;;;;;;;;;;5035830;28;20118;-75
2021/08/11 03:55:32;;;;;;;7.32;5.63;;;;;;;;;;5035868;28;20125;-75
2021/08/11 03:57:59;;;;;;;8.60;5.13;;;;;;;;;;5035714;28;20045;-75
2021/08/11 04:00:26;;;;;;;6.50;5.38;;;;;;;;;;5035807;28;20041;-75
2021/08/11 04:02:52;;;;;;;9.05;5.97;;;;;;;;;;5035106;28;20465;-75
2021/08/11 04:05:18;;;;;;;5.65;5.13;;;;;;;;;;5035463;28;20132;-75
2021/08/11 04:07:44;;;;;;;7.63;6.60;;;;;;;;;;5035606;28;20492;-75
2021/08/11 04:10:11;;;;;;;8.50;5.10;;;;;;;;;;5035580;28;20041;-76
2021/08/11 04:12:37;;;;;;;6.85;5.65;;;;;;;;;;5035497;28;20068;-76
2021/08/11 04:15:04;;;;;;;5.70;5.10;;;;;;;;;;5035121;28;20041;-76
2021/08/11 04:17:30;;;;;;;6.97;5.22;;;;;;;;;;5035087;28;20037;-76
2021/08/11 04:19:56;;;;;;;7.45;5.35;;;;;;;;;;5034997;28;20049;-76
2021/08/11 04:22:22;;;;;;;5.80;5.25;;;;;;;;;;5035417;28;20159;-76
2021/08/11 04:24:48;;;;;;;5.63;5.07;;;;;;;;;;5034868;28;20046;-76
2021/08/11 04:27:15;;;;;;;6.15;5.20;;;;;;;;;;5034626;28;20080;-76
2021/08/11 04:29:41;;;;;;;6.45;5.25;;;;;;;;;;5034092;28;20041;-76
2021/08/11 04:32:07;;;;;;;6.07;5.40;;;;;;;;;;5034817;28;20126;-76
2021/08/11 04:34:33;;;;;;;8.20;5.55;;;;;;;;;;5034698;28;20172;-75
2021/08/11 04:37:00;;;;;;;6.90;5.82;;;;;;;;;;5034484;28;20045;-75
2021/08/11 04:39:26;;;;;;;6.40;5.50;;;;;;;;;;5035015;28;20112;-75
2021/08/11 04:41:52;;;;;;;7.03;6.15;;;;;;;;;;5034700;28;20047;-75
2021/08/11 04:44:18;;;;;;;7.47;6.07;;;;;;;;;;5034278;28;20044;-76
2021/08/11 04:46:44;;;;;;;8.82;6.35;;;;;;;;;;5034480;28;20136;-76
2021/08/11 04:49:10;;;;;;;10.35;6.30;;;;;;;;;;5034578;28;20045;-76
2021/08/11 04:51:36;;;;;;;7.13;6.30;;;;;;;;;;5034491;28;20046;-76
2021/08/11 04:54:03;;;;;;;7.53;6.40;;;;;;;;;;5034602;28;20073;-76
2021/08/11 04:56:29;;;;;;;8.00;5.78;;;;;;;;;;5034239;28;20463;-76
2021/08/11 04:58:55;;;;;;;7.03;6.32;;;;;;;;;;5034511;28;20072;-75
2021/08/11 05:01:21;;;;;;;7.60;6.03;;;;;;;;;;5034187;28;20037;-76
2021/08/11 05:03:47;;;;;;;7.88;6.20;;;;;;;;;;5034291;28;20047;-76
2021/08/11 05:06:13;;;;;;;9.45;6.10;;;;;;;;;;5034027;28;20045;-76
2021/08/11 05:08:39;;;;;;;7.57;6.22;;;;;;;;;;5034308;28;20045;-75
2021/08/11 05:11:06;;;;;;;9.20;5.82;;;;;;;;;;5034967;28;20116;-75
2021/08/11 05:13:32;;;;;;;6.90;5.75;;;;;;;;;;5034577;28;20160;-75
2021/08/11 05:15:58;;;;;;;9.73;5.72;;;;;;;;;;5034609;28;20037;-76
2021/08/11 05:18:25;;;;;;;7.97;5.60;;;;;;;;;;5034033;28;20045;-76
2021/08/11 05:20:51;;;;;;;9.82;5.95;;;;;;;;;;5034201;28;20048;-76
2021/08/11 05:23:17;;;;;;;6.70;6.07;;;;;;;;;;5034472;28;20100;-75
2021/08/11 05:25:44;;;;;;;7.80;6.18;;;;;;;;;;5034854;28;20064;-75
2021/08/11 05:28:10;;;;;;;9.80;5.95;;;;;;;;;;5034967;28;20045;-75
2021/08/11 05:30:42;;;;;;;7.60;6.13;;;;;;;;;;5034324;28;20041;-75
2021/08/11 05:33:08;;;;;;;9.35;6.20;;;;;;;;;;5034448;28;20552;-75
2021/08/11 05:35:35;;;;;;;6.40;5.70;;;;;;;;;;5034307;28;20041;-75
2021/08/11 05:38:01;;;;;;;8.80;5.70;;;;;;;;;;5034457;28;20041;-76
2021/08/11 05:40:27;;;;;;;5.78;5.25;;;;;;;;;;5035046;28;20556;-75
2021/08/11 05:42:53;;;;;;;8.75;5.85;;;;;;;;;;5038006;28;20111;-75
2021/08/11 05:45:19;;;;;;;9.07;5.28;;;;;;;;;;5037997;28;20045;-76
2021/08/11 05:47:46;;;;;;;7.28;5.65;;;;;;;;;;5038192;28;20514;-75
2021/08/11 05:50:12;;;;;;;9.18;5.85;;;;;;;;;;5037749;28;20508;-76
2021/08/11 05:52:38;;;;;;;7.70;5.22;;;;;;;;;;5037864;28;20432;-75
2021/08/11 05:55:05;;;;;;;7.35;4.75;;;;;;;;;;5037698;28;20040;-75
2021/08/11 05:57:32;;;;;;;6.32;4.85;;;;;;;;;;5038076;28;20041;-75
2021/08/11 05:59:58;;;;;;;8.00;4.90;;;;;;;;;;5037871;28;20038;-75
2021/08/11 06:02:24;;;;;;;7.05;4.40;;;;;;;;;;5038069;28;20037;-76
2021/08/11 06:04:50;;;;;;;5.97;4.97;;;;;;;;;;5037728;28;20080;-76
2021/08/11 06:07:19;;;;;;;9.30;5.30;;;;;;;;;;5037729;28;20132;-75
2021/08/11 06:09:45;;;;;;;9.73;5.70;;;;;;;;;;5037184;28;20041;-75
2021/08/11 06:12:11;;;;;;;8.25;5.55;;;;;;;;;;5038077;28;20052;-76
2021/08/11 06:14:37;;;;;;;5.88;5.35;;;;;;;;;;5037623;28;20049;-75
2021/08/11 06:17:03;;;;;;;6.45;5.00;;;;;;;;;;5037377;28;20041;-75
2021/08/11 06:19:29;;;;;;;7.03;6.05;;;;;;;;;;5037197;28;20041;-75
2021/08/11 06:21:55;;;;;;;7.57;5.40;;;;;;;;;;5019381;28;20049;-76
2021/08/11 06:24:21;;;;;;;8.10;5.05;;;;;;;;;;5037159;28;20557;-76
2021/08/11 06:26:48;;;;;;;7.35;5.50;;;;;;;;;;5037086;28;20091;-75
2021/08/11 06:29:14;;;;;;;6.97;5.20;;;;;;;;;;5037347;28;20037;-75
2021/08/11 06:31:40;;;;;;;8.65;4.75;;;;;;;;;;5037459;28;20545;-75
2021/08/11 06:34:06;;;;;;;6.95;4.72;;;;;;;;;;5036867;28;20179;-76
2021/08/11 06:36:32;;;;;;;6.38;5.00;;;;;;;;;;5036642;28;20065;-76
2021/08/11 06:38:58;;;;;;;5.72;5.03;;;;;;;;;;5036812;28;20124;-76
2021/08/11 06:41:24;;;;;;;7.10;4.75;;;;;;;;;;5037571;28;20554;-76
2021/08/11 06:43:51;;;;;;;5.45;4.55;;;;;;;;;;5036785;28;20072;-75
2021/08/11 06:46:17;;;;;;;8.10;4.15;;;;;;;;;;5036541;28;20124;-76
2021/08/11 06:48:43;;;;;;;7.90;4.53;;;;;;;;;;5036620;28;20116;-76
2021/08/11 06:51:10;;;;;;;5.18;4.20;;;;;;;;;;5036069;28;20124;-76
2021/08/11 06:53:36;;;;;;;5.70;4.07;;;;;;;;;;5037008;28;20096;-76
2021/08/11 06:56:02;;;;;;;5.32;4.10;;;;;;;;;;5036952;28;20041;-76
2021/08/11 06:58:29;;;;;;;5.03;4.07;;;;;;;;;;5037078;28;20601;-76
2021/08/11 07:00:59;;;;;;;8.25;3.80;;;;;;;;;;5037112;28;20116;-76
2021/08/11 07:03:25;;;;;;;4.27;3.63;;;;;;;;;;5036199;28;20045;-76
2021/08/11 07:05:51;;;;;;;6.50;4.15;;;;;;;;;;5018578;28;20504;-76
2021/08/11 07:08:17;;;;;;;7.80;4.15;;;;;;;;;;5036114;28;20041;-75
2021/08/11 07:10:43;;;;;;;5.72;3.90;;;;;;;;;;5035626;28;20124;-75
2021/08/11 07:13:09;;;;;;;4.60;3.90;;;;;;;;;;5019119;28;20033;-76
2021/08/11 07:15:35;;;;;;;7.40;4.32;;;;;;;;;;5018454;28;20480;-75
2021/08/11 07:18:02;;;;;;;4.43;3.88;;;;;;;;;;5036258;28;20073;-76
2021/08/11 07:20:29;;;;;;;6.80;4.50;;;;;;;;;;5036453;28;20496;-75
2021/08/11 07:22:58;;;;;;;8.55;4.68;;;;;;;;;;5036227;28;20049;-75
2021/08/11 07:25:24;;;;;;;5.70;4.13;;;;;;;;;;5018568;28;20042;-77
2021/08/11 07:27:50;;;;;;;5.55;3.85;;;;;;;;;;5018169;28;20041;-76
2021/08/11 07:30:16;;;;;;;6.57;4.38;;;;;;;;;;5035779;28;20045;-75
2021/08/11 07:32:43;;;;;;;5.70;4.13;;;;;;;;;;5036283;28;20063;-74
2021/08/11 07:35:10;;;;;;;5.93;4.47;;;;;;;;;;5035671;28;20056;-76
2021/08/11 07:37:46;;;;;;;5.55;4.32;;;;;;;;;;5034569;28;20112;-76
2021/08/11 07:40:13;;;;;;;8.60;4.65;;;;;;;;;;5015811;28;20045;-74
2021/08/11 07:42:40;;;;;;;5.00;4.50;;;;;;;;;;5015974;28;20488;-75
2021/08/11 07:45:09;;;;;;;5.80;4.68;;;;;;;;;;5015997;28;20327;-76
2021/08/11 07:47:38;;;;;;;7.07;4.60;;;;;;;;;;5035515;28;20073;-75
2021/08/11 07:50:05;;;;;;;5.90;4.32;;;;;;;;;;5035236;28;20053;-76
2021/08/11 07:52:31;;;;;;;5.07;3.80;;;;;;;;;;5035500;28;20037;-75
2021/08/11 07:54:57;;;;;;;5.80;3.88;;;;;;;;;;5035198;28;20044;-75
2021/08/11 07:57:23;;;;;;;4.85;4.45;;;;;;;;;;5035347;28;20040;-76
2021/08/11 07:59:49;;;;;;;5.78;4.32;;;;;;;;;;5035813;28;20578;-76
2021/08/11 08:02:16;;;;;;;4.70;3.60;;;;;;;;;;5035325;28;20037;-75
2021/08/11 08:04:42;;;;;;;6.55;4.13;;;;;;;;;;5034240;28;20511;-75
2021/08/11 08:07:09;;;;;;;9.02;4.55;;;;;;;;;;5032822;28;20049;-75
2021/08/11 08:09:35;;;;;;;5.28;4.18;;;;;;;;;;5033919;28;20049;-75
2021/08/11 08:12:02;;;;;;;6.32;3.97;;;;;;;;;;5027155;28;20099;-76
2021/08/11 08:14:28;;;;;;;5.55;3.90;;;;;;;;;;5031573;28;20053;-79
2021/08/11 08:16:54;;;;;;;6.47;3.92;;;;;;;;;;5032157;28;20060;-77
2021/08/11 08:19:20;;;;;;;5.88;3.90;;;;;;;;;;5032680;28;20052;-77
2021/08/11 08:21:46;;;;;;;6.30;3.75;;;;;;;;;;5021520;28;20049;-77
2021/08/11 08:24:12;;;;;;;4.88;4.10;;;;;;;;;;5032384;28;20045;-77
2021/08/11 08:26:38;;;;;;;5.70;4.35;;;;;;;;;;5031468;28;20049;-78
2021/08/11 08:29:05;;;;;;;6.20;4.25;;;;;;;;;;5031911;28;20049;-75
2021/08/11 08:31:31;;;;;;;7.00;4.20;;;;;;;;;;5034332;28;20465;-79
2021/08/11 08:33:57;;;;;;;6.82;4.20;;;;;;;;;;5034658;28;20219;-76
2021/08/11 08:36:23;;;;;;;6.20;3.55;;;;;;;;;;5033258;28;20037;-76
2021/08/11 08:38:49;;;;;;;7.82;4.82;;;;;;;;;;5032743;28;20041;-77
2021/08/11 08:41:16;;;;;;;8.82;3.88;;;;;;;;;;5033255;28;20053;-80
2021/08/11 08:43:42;;;;;;;8.98;4.20;;;;;;;;;;5015705;28;20033;-78
2021/08/11 08:46:09;;;;;;;7.30;3.85;;;;;;;;;;5034218;28;20393;-77
2021/08/11 08:48:40;;;;;;;6.88;4.00;;;;;;;;;;5033592;28;20037;-77
2021/08/11 08:51:08;;;;;;;5.55;3.70;;;;;;;;;;5033561;28;20041;-77
2021/08/11 08:53:34;;;;;;;6.38;3.90;;;;;;;;;;5033968;28;20045;-77
2021/08/11 08:56:00;;;;;;;7.75;3.60;;;;;;;;;;5034401;28;20469;-77
2021/08/11 08:58:26;;;;;;;5.30;3.85;;;;;;;;;;5034370;28;20044;-77
2021/08/11 09:00:53;;;;;;;5.85;4.10;;;;;;;;;;5034042;28;20481;-77
2021/08/11 09:03:19;;;;;;;5.88;3.80;;;;;;;;;;5034076;28;20576;-77
2021/08/11 09:05:46;;;;;;;6.63;3.85;;;;;;;;;;5034342;28;20052;-77
2021/08/11 09:08:12;;;;;;;6.88;4.50;;;;;;;;;;5035234;28;20030;-77
2021/08/11 09:10:40;;;;;;;5.32;4.13;;;;;;;;;;5034431;28;20044;-77
2021/08/11 09:13:13;;;;;;;8.50;4.00;;;;;;;;;;5034632;28;20034;-77
2021/08/11 09:15:40;;;;;;;6.13;4.40;;;;;;;;;;5037145;28;20596;-77
2021/08/11 09:18:14;;;;;;;5.38;4.13;;;;;;;;;;5038520;28;20119;-77
2021/08/11 09:20:42;;;;;;;4.93;4.05;;;;;;;;;;5038833;28;20068;-77
2021/08/11 09:23:08;;;;;;;5.65;4.28;;;;;;;;;;5039155;28;20056;-77
2021/08/11 09:25:35;;;;;;;6.22;4.30;;;;;;;;;;5038423;28;20496;-77
2021/08/11 09:28:01;;;;;;;7.68;4.47;;;;;;;;;;5038847;28;20041;-77
2021/08/11 09:30:34;;;;;;;5.50;3.97;;;;;;;;;;5038618;28;20052;-77
2021/08/11 09:33:03;;;;;;;8.40;4.50;;;;;;;;;;5039163;28;20049;-77
2021/08/11 09:35:38;;;;;;;5.53;3.93;;;;;;;;;;5038269;28;20068;-77
2021/08/11 09:38:08;;;;;;;5.38;4.20;;;;;;;;;;5038113;28;20049;-76
2021/08/11 09:40:35;;;;;;;6.53;4.27;;;;;;;;;;5037876;28;20044;-77
2021/08/11 09:43:03;;;;;;;6.53;4.47;;;;;;;;;;5038815;28;20041;-77
2021/08/11 09:45:42;;;;;;;7.80;4.43;;;;;;;;;;5038543;28;20041;-77
2021/08/11 09:48:08;;;;;;;6.55;4.28;;;;;;;;;;5038044;28;20045;-77
2021/08/11 09:50:36;;;;;;;6.82;4.32;;;;;;;;;;5037997;28;20053;-77
2021/08/11 09:53:03;;;;;;;7.45;4.35;;;;;;;;;;5038105;28;20179;-77
2021/08/11 09:55:29;;;;;;;5.32;4.10;;;;;;;;;;5038398;28;20045;-77
2021/08/11 09:57:55;;;;;;;6.55;4.28;;;;;;;;;;5038119;28;20534;-77
2021/08/11 10:00:21;;;;;;;6.65;4.32;;;;;;;;;;5038227;28;20488;-77
2021/08/11 10:03:01;;;;;;;10.90;4.78;;;;;;;;;;5037943;28;20107;-77
2021/08/11 10:05:33;;;;;;;5.43;4.80;;;;;;;;;;5019820;28;20092;-77
2021/08/11 10:08:00;;;;;;;9.40;5.10;;;;;;;;;;5038291;28;20453;-77
2021/08/11 10:10:26;;;;;;;7.22;4.40;;;;;;;;;;5038151;28;20120;-77
2021/08/11 10:12:53;;;;;;;5.15;4.63;;;;;;;;;;5038189;28;20034;-77
2021/08/11 10:15:20;;;;;;;8.32;4.93;;;;;;;;;;5037496;28;20112;-77
2021/08/11 10:17:50;;;;;;;8.52;4.38;;;;;;;;;;5038474;28;20121;-77
2021/08/11 10:20:20;;;;;;;5.63;3.67;;;;;;;;;;5037516;28;20507;-77
2021/08/11 10:22:46;;;;;;;6.10;4.40;;;;;;;;;;5037507;28;20115;-77
2021/08/11 10:25:12;;;;;;;8.10;4.97;;;;;;;;;;5037246;28;20391;-77
2021/08/11 10:27:43;;;;;;;8.23;4.97;;;;;;;;;;5036741;28;20052;-77
2021/08/11 10:30:11;;;;;;;5.65;4.60;;;;;;;;;;5038083;28;20053;-77
2021/08/11 10:32:38;;;;;;;8.48;4.40;;;;;;;;;;5037177;28;20562;-77
2021/08/11 10:35:05;;;;;;;7.82;4.93;;;;;;;;;;5036874;28;20037;-77
2021/08/11 10:37:33;;;;;;;6.43;4.35;;;;;;;;;;5037028;28;20040;-77
2021/08/11 10:40:01;;;;;;;5.43;3.97;;;;;;;;;;5037442;28;20124;-77
2021/08/11 10:42:27;;;;;;;5.88;4.65;;;;;;;;;;5037211;28;20033;-77
2021/08/11 10:45:00;;;;;;;6.72;4.30;;;;;;;;;;5036685;28;20400;-77
2021/08/11 10:47:33;;;;;;;5.65;4.15;;;;;;;;;;5037197;28;20078;-76
2021/08/11 10:50:04;;;;;;;9.50;4.40;;;;;;;;;;5036633;28;20085;-76
2021/08/11 10:52:31;;;;;;;6.80;4.68;;;;;;;;;;5036870;28;20107;-77
2021/08/11 10:55:05;;;;;;;10.70;4.57;;;;;;;;;;5036923;28;20069;-77
2021/08/11 10:57:38;;;;;;;6.97;4.45;;;;;;;;;;5036571;28;20079;-77
2021/08/11 11:00:04;;;;;;;7.63;4.20;;;;;;;;;;5037690;28;20038;-77
2021/08/11 11:02:40;;;;;;;12.40;5.03;;;;;;;;;;5037448;28;20072;-77
2021/08/11 11:05:07;;;;;;;6.50;4.07;;;;;;;;;;5018865;28;20373;-77
2021/08/11 11:07:33;;;;;;;7.38;4.10;;;;;;;;;;5036790;28;20050;-77
2021/08/11 11:10:18;;;;;;;6.40;4.07;;;;;;;;;;5037397;28;20049;-78
2021/08/11 11:12:44;;;;;;;6.40;4.35;;;;;;;;;;5037280;28;20132;-76
2021/08/11 11:15:10;;;;;;;5.85;3.60;;;;;;;;;;5036653;28;20156;-77
2021/08/11 11:17:56;;;;;;;5.05;3.92;;;;;;;;;;5036328;28;20523;-76
2021/08/11 11:20:22;;;;;;;6.40;4.38;;;;;;;;;;5036109;28;20045;-77
2021/08/11 11:22:53;;;;;;;6.13;4.32;;;;;;;;;;5036360;28;20052;-77
2021/08/11 11:25:20;;;;;;;6.97;4.07;;;;;;;;;;5036672;28;20176;-77
2021/08/11 11:28:00;;;;;;;7.00;3.95;;;;;;;;;;5035869;28;20045;-77
2021/08/11 11:30:26;;;;;;;6.93;4.63;;;;;;;;;;5036721;28;20071;-77
2021/08/11 11:32:52;;;;;;;5.20;4.18;;;;;;;;;;5035757;28;20045;-77
2021/08/11 11:35:20;;;;;;;4.50;3.95;;;;;;;;;;5036077;28;20496;-77
2021/08/11 11:38:05;;;;;;;5.65;3.58;;;;;;;;;;5035103;28;20540;-77
2021/08/11 11:40:31;;;;;;;4.55;3.70;;;;;;;;;;5036104;28;20064;-77
2021/08/11 11:43:16;;;;;;;5.72;4.18;;;;;;;;;;5035586;28;20099;-77
2021/08/11 11:45:43;;;;;;;5.75;4.50;;;;;;;;;;5035500;28;20073;-77
2021/08/11 11:48:10;;;;;;;5.97;4.53;;;;;;;;;;5036129;28;20049;-77
2021/08/11 11:50:41;;;;;;;4.82;4.30;;;;;;;;;;5035775;28;20041;-77
2021/08/11 11:53:10;;;;;;;5.63;4.22;;;;;;;;;;5036083;28;20048;-77
2021/08/11 11:55:36;;;;;;;7.72;4.63;;;;;;;;;;5036354;28;20056;-77
2021/08/11 11:58:06;;;;;;;5.57;4.18;;;;;;;;;;5035503;28;20120;-77
2021/08/11 12:00:32;;;;;;;11.98;5.03;;;;;;;;;;5035827;28;20076;-77
2021/08/11 12:02:58;;;;;;;7.57;4.05;;;;;;;;;;5035339;28;20041;-77
2021/08/11 12:05:25;;;;;;;9.13;3.95;;;;;;;;;;5035164;28;20432;-77
2021/08/11 12:07:51;;;;;;;4.88;4.13;;;;;;;;;;5035296;28;20044;-78
2021/08/11 12:10:24;;;;;;;7.60;4.57;;;;;;;;;;5035527;28;20045;-77
2021/08/11 12:13:01;;;;;;;4.28;3.97;;;;;;;;;;5035151;28;20041;-76
2021/08/11 12:15:28;;;;;;;5.32;4.38;;;;;;;;;;5034867;28;20037;-77
2021/08/11 12:17:56;;;;;;;4.80;4.07;;;;;;;;;;5035418;28;20041;-77
2021/08/11 12:20:36;;;;;;;4.95;3.88;;;;;;;;;;5035438;28;20099;-77
2021/08/11 12:23:03;;;;;;;5.73;4.33;;;;;;;;;;5035410;28;20081;-77
2021/08/11 12:25:30;;;;;;;7.93;4.30;;;;;;;;;;5034963;28;20049;-77
2021/08/11 12:28:13;;;;;;;4.40;3.97;;;;;;;;;;5035298;28;20550;-76
2021/08/11 12:30:59;;;;;;;7.32;4.45;;;;;;;;;;5035846;28;20128;-76
2021/08/11 12:33:26;;;;;;;5.93;3.95;;;;;;;;;;5035155;28;20047;-77
2021/08/11 12:35:53;;;;;;;9.27;4.30;;;;;;;;;;5035028;28;20048;-77
2021/08/11 12:38:30;;;;;;;4.63;4.10;;;;;;;;;;5035165;28;20302;-77
2021/08/11 12:40:56;;;;;;;7.75;4.47;;;;;;;;;;5035698;28;20048;-76
2021/08/11 12:43:22;;;;;;;5.95;4.00;;;;;;;;;;5035000;28;20029;-77
2021/08/11 12:45:52;;;;;;;4.03;3.58;;;;;;;;;;5035038;28;20045;-77
2021/08/11 12:48:29;;;;;;;4.95;3.40;;;;;;;;;;5035473;28;20369;-77
2021/08/11 12:50:56;;;;;;;4.13;3.53;;;;;;;;;;5034486;28;20045;-77
2021/08/11 12:53:38;;;;;;;7.55;4.82;;;;;;;;;;5034949;28;20119;-77
2021/08/11 12:56:06;;;;;;;4.45;3.78;;;;;;;;;;5034260;28;20041;-77
2021/08/11 12:58:51;;;;;;;4.50;3.58;;;;;;;;;;5035037;28;20037;-77
2021/08/11 13:01:32;;;;;;;4.10;3.60;;;;;;;;;;5035167;28;20041;-77
2021/08/11 13:03:59;;;;;;;6.45;3.50;;;;;;;;;;5034240;28;20065;-77
2021/08/11 13:06:32;;;;;;;4.10;3.42;;;;;;;;;;5034670;28;20049;-76
2021/08/11 13:08:58;;;;;;;7.15;3.33;;;;;;;;;;5034462;28;20041;-77
2021/08/11 13:11:24;;;;;;;5.35;3.97;;;;;;;;;;5035047;28;20042;-77
2021/08/11 13:13:51;;;;;;;4.15;3.72;;;;;;;;;;5034737;28;20045;-77
2021/08/11 13:16:17;;;;;;;4.35;3.53;;;;;;;;;;5034296;28;20029;-77
2021/08/11 13:18:44;;;;;;;4.32;3.22;;;;;;;;;;5034665;28;20065;-77
2021/08/11 13:21:10;;;;;;;4.07;3.13;;;;;;;;;;5034221;28;20047;-77
2021/08/11 13:23:40;;;;;;;4.15;2.95;;;;;;;;;;5034334;28;20052;-77
2021/08/11 13:26:07;;;;;;;3.92;3.45;;;;;;;;;;5034509;28;20052;-77
2021/08/11 13:28:37;;;;;;;5.70;3.35;;;;;;;;;;5034003;28;20037;-77
2021/08/11 13:31:06;;;;;;;3.75;2.90;;;;;;;;;;5034227;28;20530;-77
2021/08/11 13:33:32;;;;;;;4.28;3.17;;;;;;;;;;5034136;28;20065;-77
2021/08/11 13:35:58;;;;;;;5.72;3.22;;;;;;;;;;5033967;28;20128;-77
2021/08/11 13:38:24;;;;;;;3.40;2.67;;;;;;;;;;5034176;28;20033;-77
2021/08/11 13:40:50;;;;;;;6.03;3.05;;;;;;;;;;5034008;28;20049;-77
2021/08/11 13:43:16;;;;;;;6.78;3.00;;;;;;;;;;5034004;28;20543;-77
2021/08/11 13:45:42;;;;;;;4.82;2.80;;;;;;;;;;5034061;28;20052;-77
2021/08/11 13:48:09;;;;;;;4.07;3.20;;;;;;;;;;5034035;28;20045;-77
2021/08/11 13:50:35;;;;;;;3.83;2.58;;;;;;;;;;5034092;28;20125;-77
2021/08/11 13:53:01;;;;;;;4.05;2.60;;;;;;;;;;5033875;28;20044;-76
2021/08/11 13:55:27;;;;;;;3.00;2.63;;;;;;;;;;5034250;28;20053;-77
2021/08/11 13:57:53;;;;;;;3.08;2.67;;;;;;;;;;5033592;28;20029;-77
2021/08/11 14:00:21;;;;;;;9.95;3.08;;;;;;;;;;5034552;28;20049;-77
2021/08/11 14:02:47;;;;;;;4.53;2.90;;;;;;;;;;5036450;28;20045;-77
2021/08/11 14:05:13;;;;;;;5.00;3.55;;;;;;;;;;5037116;28;20049;-77
2021/08/11 14:07:40;;;;;;;5.28;2.65;;;;;;;;;;5038067;28;20049;-77
2021/08/11 14:10:06;;;;;;;4.07;3.00;;;;;;;;;;5037217;28;20041;-77
2021/08/11 14:12:32;;;;;;;4.97;2.85;;;;;;;;;;5037755;28;20424;-77
2021/08/11 14:14:58;;;;;;;4.18;2.50;;;;;;;;;;5037755;28;20085;-77
2021/08/11 14:17:24;;;;;;;4.07;2.83;;;;;;;;;;5037340;28;20065;-77
2021/08/11 14:19:50;;;;;;;2.85;2.58;;;;;;;;;;5037209;28;20049;-77
2021/08/11 14:22:17;;;;;;;9.30;3.97;;;;;;;;;;5037640;28;20058;-77
2021/08/11 14:24:43;;;;;;;9.63;3.28;;;;;;;;;;5037191;28;20037;-77
2021/08/11 14:27:10;;;;;;;5.43;2.65;;;;;;;;;;5037465;28;20115;-77
2021/08/11 14:29:37;;;;;;;8.43;3.15;;;;;;;;;;5037754;28;20044;-77
2021/08/11 14:32:03;;;;;;;5.32;2.70;;;;;;;;;;5037510;28;20041;-77
2021/08/11 14:34:29;;;;;;;7.47;2.90;;;;;;;;;;5037230;28;20052;-77
2021/08/11 14:36:55;;;;;;;7.05;2.85;;;;;;;;;;5037087;28;20369;-77
2021/08/11 14:39:22;;;;;;;5.60;2.70;;;;;;;;;;5037051;28;20452;-77
2021/08/11 14:41:48;;;;;;;8.88;2.90;;;;;;;;;;5037176;28;20384;-77
2021/08/11 14:44:14;;;;;;;4.18;2.60;;;;;;;;;;5036914;28;20041;-77
2021/08/11 14:46:40;;;;;;;6.28;2.45;;;;;;;;;;5037780;28;20054;-77